WetterOnline ( https://www.wetteronline.de )

Wetter aktuell Grevesmühlen

Aktuelles Wetter: Boltenhagen (17m)

6-stündlich | Neueste Meldungen
Ortszeit Temperatur Wetter
Sa, 20.04. 14:00 9.8° C fast wolkenlos
Sa, 20.04. 8:00 7.4° C wolkenlos
Sa, 20.04. 2:00 6.4° C wolkenlos
Fr, 19.04. 20:00 8.7° C wolkenlos
Fr, 19.04. 14:00 10.1° C wolkenlos
Fr, 19.04. 8:00 8.1° C wolkenlos
Fr, 19.04. 2:00 6.7° C wolkenlos
Do, 18.04. 20:00 7.9° C wolkenlos
Ortszeit Temperatur Wetter
Sa, 20.04. 14:10 9.9° C wolkenlos
Sa, 20.04. 14:00 9.8° C fast wolkenlos
Sa, 20.04. 13:50 9.8° C fast wolkenlos
Sa, 20.04. 13:40 9.4° C wolkig
Sa, 20.04. 13:30 10.0° C bewölkt
Sa, 20.04. 13:20 10.0° C bewölkt
Sa, 20.04. 13:00 9.2° C wolkig
Sa, 20.04. 12:30 9.5° C bedeckt
Sa, 20.04. 12:00 8.7° C leicht bewölkt
Sa, 20.04. 11:30 9.3° C wolkig
Ortszeit Relative Feuchte Sichtweite
Sa, 20.04. 14:00 67% 50 km
Sa, 20.04. 8:00 76% 30 km
Sa, 20.04. 2:00 83% 40 km
Fr, 19.04. 20:00 80% 30 km
Fr, 19.04. 14:00 77% 30 km
Fr, 19.04. 8:00 79% 29 km
Fr, 19.04. 2:00 91% 10 km
Do, 18.04. 20:00 89% 13 km
Ortszeit Relative Feuchte Sichtweite
Sa, 20.04. 14:10 69% -
Sa, 20.04. 14:00 67% 50 km
Sa, 20.04. 13:50 67% -
Sa, 20.04. 13:40 68% -
Sa, 20.04. 13:30 71% 50 km
Sa, 20.04. 13:20 71% -
Sa, 20.04. 13:00 71% 55 km
Sa, 20.04. 12:30 72% 55 km
Sa, 20.04. 12:00 74% 50 km
Sa, 20.04. 11:30 75% 60 km
Ortszeit Niederschlagsmenge Niederschlagsart
Sa, 20.04. 14:00 0.0 l/m2 in 6 Std. -
Sa, 20.04. 8:00 0.0 l/m2 in 12 Std. -
Sa, 20.04. 2:00 0.0 l/m2 in 6 Std. -
Fr, 19.04. 20:00 0.0 l/m2 in 12 Std. -
Fr, 19.04. 14:00 0.0 l/m2 in 6 Std. -
Fr, 19.04. 8:00 0.0 l/m2 in 12 Std. -
Fr, 19.04. 2:00 0.0 l/m2 in 6 Std. -
Do, 18.04. 20:00 0.0 l/m2 in 12 Std. -
Ortszeit Niederschlagsmenge Niederschlagsart
Sa, 20.04. 14:10 keine Meldung -
Sa, 20.04. 14:00 0.0 l/m2 in 1 Std. -
Sa, 20.04. 13:50 keine Meldung -
Sa, 20.04. 13:40 keine Meldung -
Sa, 20.04. 13:30 0.0 l/m2 in 1 Std. -
Sa, 20.04. 13:20 keine Meldung -
Sa, 20.04. 13:00 0.0 l/m2 in 1 Std. -
Sa, 20.04. 12:30 0.0 l/m2 in 1 Std. -
Sa, 20.04. 12:00 0.0 l/m2 in 1 Std. -
Sa, 20.04. 11:30 0.0 l/m2 in 1 Std. -
Ortszeit Stärke Spitze Richtung
km/h Bft. km/h Grad Sektor
Sa, 20.04. 14:00 17 3 26 350° N
Sa, 20.04. 8:00 11 2 18 40° NO
Sa, 20.04. 2:00 9 2 28 80° O
Fr, 19.04. 20:00 26 4 41 40° NO
Fr, 19.04. 14:00 26 4 30 30° NO
Fr, 19.04. 8:00 14 3 25 70° O
Fr, 19.04. 2:00 22 4 36 30° NO
Do, 18.04. 20:00 30 5 41 40° NO
Ortszeit Stärke Spitze Richtung
km/h Bft. km/h Grad Sektor
Sa, 20.04. 14:10 18 3 - 360° N
Sa, 20.04. 14:00 17 3 26 350° N
Sa, 20.04. 13:50 17 3 - 350° N
Sa, 20.04. 13:40 18 3 - 360° N
Sa, 20.04. 13:30 19 3 26 360° N
Sa, 20.04. 13:20 19 3 - 360° N
Sa, 20.04. 13:00 17 3 24 360° N
Sa, 20.04. 12:30 14 3 22 360° N
Sa, 20.04. 12:00 14 3 18 350° N
Sa, 20.04. 11:30 9 2 13 10° N
Ortszeit Untergrenze Bedeckung Gattung
total tief tief mittel hoch
Sa, 20.04. 14:00 7200 m 2/8 0/8 - - -
Sa, 20.04. 8:00 - 0/8 0/8 - - -
Sa, 20.04. 2:00 - 0/8 0/8 - - -
Fr, 19.04. 20:00 - 0/8 0/8 - - -
Fr, 19.04. 14:00 - 0/8 0/8 - - -
Fr, 19.04. 8:00 - 0/8 0/8 - - -
Fr, 19.04. 2:00 - 0/8 0/8 - - -
Do, 18.04. 20:00 - 0/8 0/8 - - -
Ortszeit Bedeckungsgrad in Achtel und Wolkenuntergrenze
Sa, 20.04. 14:10 keine Wolken
Sa, 20.04. 14:00 1(7200m)
Sa, 20.04. 13:50 1(7200m) 2(8700m)
Sa, 20.04. 13:40 2(6300m) 3(7200m) 6(8700m)
Sa, 20.04. 13:30 7(6600m) 7(7500m) 7(7800m)
Sa, 20.04. 13:20 7(6600m) 7(7500m) 7(7800m)
Sa, 20.04. 13:00 7(6600m)
Sa, 20.04. 12:30 8(6900m)
Sa, 20.04. 12:00 2(7200m) 4(8700m) 5(9000m)
Sa, 20.04. 11:30 6(8400m) 7(9000m) 8(9000m)
Ortszeit Luftdruck NN (hPa) Tendenz (hPa in 3 Std.)
Sa, 20.04. 14:00 1033 - 1,1
Sa, 20.04. 8:00 1034 + 0,1
Sa, 20.04. 2:00 1034 - 0,2
Fr, 19.04. 20:00 1034 - 0,1
Fr, 19.04. 14:00 1035 - 0,4
Fr, 19.04. 8:00 1035 + 0,7
Fr, 19.04. 2:00 1034 + 0,5
Do, 18.04. 20:00 1032 + 0,1
Ortszeit Luftdruck NN (hPa) Tendenz (hPa in 3 Std.)
Sa, 20.04. 14:10 1033 keine Meldung
Sa, 20.04. 14:00 1033 - 1,1
Sa, 20.04. 13:50 1033 keine Meldung
Sa, 20.04. 13:40 1033 keine Meldung
Sa, 20.04. 13:30 1034 - 0,9
Sa, 20.04. 13:20 1034 keine Meldung
Sa, 20.04. 13:00 1034 - 0,7
Sa, 20.04. 12:30 1034 - 0,6
Sa, 20.04. 12:00 1034 - 0,3
Sa, 20.04. 11:30 1034 0,0
Ortszeit Schneehöhe (cm)
Sa, 20.04. 14:00 0
Sa, 20.04. 8:00 0
Sa, 20.04. 2:00 0
Fr, 19.04. 20:00 0
Fr, 19.04. 14:00 0
Fr, 19.04. 8:00 0
Fr, 19.04. 2:00 0
Do, 18.04. 20:00 0
Ortszeit Schneehöhe (cm)
Sa, 20.04. 14:10 0
Sa, 20.04. 14:00 0
Sa, 20.04. 13:50 0
Sa, 20.04. 13:40 0
Sa, 20.04. 13:30 0
Sa, 20.04. 13:20 0
Sa, 20.04. 13:00 0
Sa, 20.04. 12:30 0
Sa, 20.04. 12:00 0
Sa, 20.04. 11:30 0
Link zu dieser Seite / Seite empfehlen

Das Wetter in ...